FVTE weather

Tengwe Airport
Tengwe, Mashonaland West Province, Zimbabwe

Public forecast

Using degrees Celsius for public forecast. Weather courtesy of forecast.io.

Closest aviation weather report (METAR) to Tengwe Airport

Report is more than 6 hours old.

Closest report is Kariba International Airport, 55.3 nm (102.4 km) NW. Retrieved 2019/10/15 12:00 UTC (2 days ago):

FVKB 151200Z 35007KT CAVOK 35/09 Q1013

Closest aviation forecast (TAF) to Tengwe Airport

Forecast is more than 12 hours old.

Closest forecast is Kariba International Airport, 55.3 nm (102.4 km) NW. Retrieved 2018/08/24 06:00 UTC (1 year ago):

TAF FVKB 240400Z 2406/2416 27005KT CAVOK